Time;durP1;ratioP1;P1;durP2;ratioP2;P2;SDS_P1;SDS_P2;PMS_P1;PMS_P2;Temp;Humidity;BMP_temperature;BMP_pressure;BME280_temperature;BME280_humidity;BME280_pressure;Samples;Min_cycle;Max_cycle;Signal;HPM_P1;HPM_P2
2022/01/22 00:00:51;;;;;;;19.88;9.10;;;;;;;5.77;100.00;102821.66;5066309;28;20049;-75
2022/01/22 00:03:18;;;;;;;14.45;5.72;;;;;;;5.80;100.00;102829.28;5058170;28;20052;-77
2022/01/22 00:05:45;;;;;;;33.53;16.60;;;;;;;5.84;100.00;102822.03;5067334;28;20064;-75
2022/01/22 00:08:12;;;;;;;27.02;12.27;;;;;;;5.82;100.00;102823.50;5064240;28;20057;-76
2022/01/22 00:10:42;;;;;;;39.80;17.73;;;;;;;5.83;100.00;102820.44;5061374;28;20072;-74
2022/01/22 00:14:23;;;;;;;34.15;15.52;;;;;;;5.87;100.00;102820.63;5061906;28;20145;-75
2022/01/22 00:15:56;;;;;;;22.52;9.95;;;;;;;5.76;100.00;102824.72;5064743;28;20571;-74
2022/01/22 00:18:22;;;;;;;10.95;4.72;;;;;;;5.86;100.00;102816.25;5066444;28;20230;-75
2022/01/22 00:20:49;;;;;;;33.45;14.07;;;;;;;5.85;100.00;102820.13;5066261;28;20131;-74
2022/01/22 00:23:17;;;;;;;38.85;14.60;;;;;;;5.90;100.00;102826.28;5066615;28;20559;-74
2022/01/22 00:25:43;;;;;;;28.27;13.57;;;;;;;5.89;100.00;102824.69;5067492;28;20528;-74
2022/01/22 00:28:10;;;;;;;29.55;12.70;;;;;;;5.90;100.00;102817.25;5065983;28;20127;-75
2022/01/22 00:30:36;;;;;;;10.15;4.65;;;;;;;5.87;100.00;102815.13;5066282;28;20040;-74
2022/01/22 00:33:03;;;;;;;29.90;12.27;;;;;;;5.86;100.00;102817.06;5064916;28;20050;-75
2022/01/22 00:35:30;;;;;;;30.63;11.93;;;;;;;5.91;100.00;102813.38;5073390;28;20086;-75
2022/01/22 00:37:56;;;;;;;25.88;9.68;;;;;;;5.82;100.00;102810.56;5062353;28;20060;-75
2022/01/22 00:40:23;;;;;;;22.48;9.10;;;;;;;5.92;100.00;102809.50;5065945;28;20558;-75
2022/01/22 00:42:49;;;;;;;32.22;10.55;;;;;;;5.92;100.00;102813.06;5064659;28;20102;-75
2022/01/22 00:45:18;;;;;;;20.73;8.10;;;;;;;5.88;100.00;102808.50;5064421;28;20045;-74
2022/01/22 00:47:46;;;;;;;28.17;11.65;;;;;;;5.92;100.00;102807.56;5068302;28;20090;-75
2022/01/22 00:50:15;;;;;;;29.02;13.30;;;;;;;5.93;100.00;102806.44;5066373;28;20045;-74
2022/01/22 00:52:44;;;;;;;21.90;10.95;;;;;;;5.84;100.00;102811.06;5067182;28;20056;-77
2022/01/22 00:55:11;;;;;;;26.40;12.25;;;;;;;5.94;100.00;102810.78;5066298;28;20084;-75
2022/01/22 00:57:38;;;;;;;31.08;13.13;;;;;;;5.92;100.00;102807.56;5058912;28;20066;-73
2022/01/22 01:00:08;;;;;;;33.40;12.35;;;;;;;5.94;100.00;102810.00;5065258;28;20056;-75
2022/01/22 01:02:36;;;;;;;15.05;7.13;;;;;;;5.88;100.00;102814.81;5066111;28;20135;-75
2022/01/22 01:05:05;;;;;;;35.05;15.00;;;;;;;5.95;100.00;102815.19;5065556;28;20048;-74
2022/01/22 01:07:31;;;;;;;36.08;15.10;;;;;;;5.93;100.00;102808.34;5066091;28;20121;-74
2022/01/22 01:09:58;;;;;;;19.52;7.22;;;;;;;5.89;100.00;102812.88;5066398;28;20052;-74
2022/01/22 01:12:25;;;;;;;14.60;7.20;;;;;;;5.93;100.00;102808.34;5066694;28;20079;-76
2022/01/22 01:32:11;;;;;;;31.88;14.43;;;;;;;5.94;100.00;102810.00;5058198;28;20131;-76
2022/01/22 01:36:38;;;;;;;15.65;6.63;;;;;;;5.82;100.00;102812.50;5069919;28;20135;-75
2022/01/22 01:39:09;;;;;;;34.78;14.73;;;;;;;5.85;100.00;102815.44;5072290;28;20488;-77
2022/01/22 01:44:03;;;;;;;25.00;12.98;;;;;;;5.79;100.00;102824.09;5070701;28;20054;-75
2022/01/22 01:46:32;;;;;;;36.25;14.90;;;;;;;5.82;100.00;102821.56;5068218;28;20134;-74
2022/01/22 01:49:02;;;;;;;13.65;6.28;;;;;;;5.74;100.00;102818.75;5062793;28;20063;-76
2022/01/22 01:51:31;;;;;;;22.95;11.18;;;;;;;5.79;100.00;102815.84;5068036;28;20052;-76
2022/01/22 01:54:08;;;;;;;19.70;8.27;;;;;;;5.75;100.00;102815.69;5069347;28;20463;-74
2022/01/22 01:59:20;;;;;;;31.20;14.00;;;;;;;5.80;100.00;102809.25;5067550;28;20144;-78
2022/01/22 02:01:46;;;;;;;29.70;14.98;;;;;;;5.79;100.00;102818.59;5069717;28;20147;-76
2022/01/22 02:04:14;;;;;;;21.90;9.85;;;;;;;5.75;100.00;102820.34;5071387;28;20125;-74
2022/01/22 02:06:41;;;;;;;19.48;10.23;;;;;;;5.76;100.00;102820.03;5069143;28;20135;-76
2022/01/22 02:09:09;;;;;;;31.70;14.75;;;;;;;5.79;100.00;102813.09;5070422;28;20068;-74
2022/01/22 02:11:39;;;;;;;16.90;7.60;;;;;;;5.71;100.00;102822.09;5074767;28;20136;-75
2022/01/22 02:24:56;;;;;;;29.98;15.35;;;;;;;5.76;100.00;102831.03;5058575;28;20057;-77
2022/01/22 02:27:23;;;;;;;39.05;15.90;;;;;;;5.77;100.00;102815.38;5067183;28;20072;-75
2022/01/22 02:29:50;;;;;;;31.33;11.85;;;;;;;5.73;100.00;102820.66;5069500;28;20054;-74
2022/01/22 02:35:07;;;;;;;35.42;15.18;;;;;;;5.81;100.00;102810.84;5075967;28;20052;-74
2022/01/22 02:37:38;;;;;;;31.42;16.50;;;;;;;5.77;100.00;102807.91;5069403;28;20048;-74
2022/01/22 02:40:11;;;;;;;23.45;12.50;;;;;;;5.78;100.00;102811.47;5075745;28;20086;-75
2022/01/22 02:42:37;;;;;;;8.93;3.83;;;;;;;5.75;100.00;102820.34;5067726;28;20052;-74
2022/01/22 02:45:07;;;;;;;37.08;17.33;;;;;;;5.84;100.00;102813.81;5064533;28;20461;-74
2022/01/22 02:47:34;;;;;;;35.08;17.48;;;;;;;5.86;100.00;102808.81;5064979;28;20072;-76
2022/01/22 02:50:00;;;;;;;34.47;15.30;;;;;;;5.82;100.00;102802.34;5066759;28;20063;-74
2022/01/22 02:52:27;;;;;;;36.25;17.58;;;;;;;5.87;100.00;102804.94;5073103;28;20044;-74
2022/01/22 02:54:55;;;;;;;35.65;14.57;;;;;;;5.85;100.00;102796.22;5066272;28;20050;-74
2022/01/22 02:57:23;;;;;;;38.10;16.33;;;;;;;5.89;100.00;102804.63;5067060;28;20674;-72
2022/01/22 02:59:50;;;;;;;39.13;18.10;;;;;;;5.89;100.00;102805.44;5063578;28;20151;-74
2022/01/22 03:02:16;;;;;;;31.13;13.07;;;;;;;5.86;100.00;102808.00;5062880;28;20048;-77
2022/01/22 03:04:43;;;;;;;38.15;16.83;;;;;;;5.92;100.00;102806.75;5074874;28;20188;-74
2022/01/22 03:07:10;;;;;;;42.35;17.65;;;;;;;5.92;100.00;102802.06;5069447;28;20106;-75
2022/01/22 03:09:42;;;;;;;29.73;14.88;;;;;;;5.91;100.00;102805.94;5068817;28;20049;-75
2022/01/22 03:20:07;;;;;;;34.42;15.73;;;;;;;5.96;100.00;102813.22;5047680;28;20071;-78
2022/01/22 03:27:45;;;;;;;38.73;16.97;;;;;;;5.94;100.00;102815.50;5067335;28;20422;-76
2022/01/22 03:30:12;;;;;;;13.85;4.78;;;;;;;5.89;100.00;102824.69;5067630;28;20074;-74
2022/01/22 03:32:45;;;;;;;15.27;5.43;;;;;;;5.88;100.00;102828.56;5066965;28;21246;-75
2022/01/22 03:37:41;;;;;;;34.85;17.17;;;;;;;5.96;100.00;102825.03;5067661;28;20505;-74
2022/01/22 03:40:10;;;;;;;7.80;3.65;;;;;;;5.92;100.00;102828.72;5069275;28;20067;-75
2022/01/22 03:42:38;;;;;;;37.83;17.35;;;;;;;5.97;100.00;102826.66;5066235;28;20127;-75
2022/01/22 03:45:07;;;;;;;32.63;14.77;;;;;;;5.97;100.00;102823.09;5067536;28;20450;-75
2022/01/22 03:47:35;;;;;;;31.35;15.35;;;;;;;5.97;100.00;102823.09;5068132;28;20055;-77
2022/01/22 03:50:04;;;;;;;29.05;12.63;;;;;;;6.01;100.00;102824.09;5067867;28;20055;-74
2022/01/22 03:52:31;;;;;;;27.10;12.60;;;;;;;6.00;100.00;102820.53;5066306;28;20056;-75
2022/01/22 03:54:58;;;;;;;36.15;16.77;;;;;;;6.05;100.00;102823.16;5057109;28;20051;-75
2022/01/22 03:57:25;;;;;;;29.50;13.68;;;;;;;6.05;100.00;102820.41;5068118;28;20127;-76
2022/01/22 03:59:54;;;;;;;34.38;15.43;;;;;;;6.09;100.00;102820.56;5068308;28;20084;-76
2022/01/22 04:04:55;;;;;;;21.05;9.27;;;;;;;6.08;100.00;102814.28;5071316;28;20044;-74
2022/01/22 04:10:08;;;;;;;29.27;12.23;;;;;;;6.11;100.00;102827.34;5059786;28;20055;-75
2022/01/22 04:12:57;;;;;;;;;;;;;;;;;;;;;
2022/01/22 04:15:08;;;;;;;35.20;15.13;;;;;;;6.16;100.00;102813.50;5068691;28;20063;-75
2022/01/22 04:26:08;;;;;;;;;;;;;;;6.22;100.00;102827.91;5064281;28;20503;-76
2022/01/22 04:28:35;;;;;;;33.58;12.25;;;;;;;6.20;100.00;102835.66;5068307;28;20101;-75
2022/01/22 04:31:02;;;;;;;35.33;14.07;;;;;;;6.23;100.00;102830.34;5067633;28;20059;-75
2022/01/22 04:33:28;;;;;;;30.88;12.00;;;;;;;6.22;100.00;102825.16;5066540;28;20147;-74
2022/01/22 04:35:55;;;;;;;33.33;13.32;;;;;;;6.22;100.00;102833.41;5078883;28;20045;-75
2022/01/22 04:38:21;;;;;;;33.63;15.27;;;;;;;6.26;100.00;102834.38;5066084;28;20055;-76
2022/01/22 04:40:48;;;;;;;35.53;14.77;;;;;;;6.24;100.00;102828.41;5067077;28;20052;-73
2022/01/22 04:43:15;;;;;;;32.17;13.93;;;;;;;6.25;100.00;102836.34;5067563;28;20599;-75
2022/01/22 04:55:49;;;;;;;31.95;13.82;;;;;;;6.25;100.00;102833.59;5066703;28;20293;-76
2022/01/22 04:58:15;;;;;;;40.85;16.45;;;;;;;6.25;100.00;102841.84;5069565;28;20136;-74
2022/01/22 05:00:43;;;;;;;29.75;13.15;;;;;;;6.29;100.00;102840.06;5072081;28;20052;-74
2022/01/22 05:03:10;;;;;;;34.33;13.63;;;;;;;6.28;100.00;102843.94;5073393;28;20426;-75
2022/01/22 05:05:37;;;;;;;34.63;16.05;;;;;;;6.33;100.00;102852.06;5083649;28;20057;-75
2022/01/22 05:08:04;;;;;;;24.92;10.93;;;;;;;6.27;100.00;102842.31;5074321;28;20075;-74
2022/01/22 05:10:31;;;;;;;35.28;15.77;;;;;;;6.31;100.00;102850.75;5070960;28;20052;-75
2022/01/22 05:12:57;;;;;;;29.05;13.20;;;;;;;6.31;100.00;102848.00;5073833;28;20056;-75
2022/01/22 05:15:24;;;;;;;39.22;16.90;;;;;;;6.32;100.00;102839.44;5074250;28;20048;-74
2022/01/22 05:17:51;;;;;;;36.75;16.70;;;;;;;6.35;100.00;102841.53;5073887;28;20060;-74
2022/01/22 05:20:26;;;;;;;31.00;13.52;;;;;;;6.35;100.00;102840.75;5074224;28;20152;-75
2022/01/22 05:25:23;;;;;;;34.75;16.27;;;;;;;6.38;100.00;102840.91;5073672;28;20135;-74
2022/01/22 05:38:33;;;;;;;29.45;11.68;;;;;;;6.40;100.00;102832.34;5073340;28;20497;-76
2022/01/22 05:41:00;;;;;;;28.45;10.43;;;;;;;6.38;100.00;102835.41;5073574;28;20044;-75
2022/01/22 05:43:27;;;;;;;29.83;12.05;;;;;;;6.38;100.00;102837.34;5073462;28;20572;-75
2022/01/22 05:45:54;;;;;;;14.45;5.82;;;;;;;6.38;100.00;102837.34;5072562;28;20079;-75
2022/01/22 05:48:20;;;;;;;14.02;5.68;;;;;;;6.35;100.00;102849.00;5072031;28;20547;-76
2022/01/22 06:01:10;;;;;;;29.70;11.00;;;;;;;6.40;100.00;102857.91;5066327;28;20079;-75
2022/01/22 06:03:37;;;;;;;27.30;11.00;;;;;;;6.38;100.00;102860.16;5075148;28;20083;-75
2022/01/22 06:06:04;;;;;;;24.00;9.70;;;;;;;6.38;100.00;102871.16;5075349;28;20044;-74
2022/01/22 06:08:39;;;;;;;25.33;9.68;;;;;;;6.37;100.00;102875.03;5070077;28;20049;-75
2022/01/22 06:11:10;;;;;;;30.58;11.98;;;;;;;6.40;100.00;102873.59;5070302;28;20128;-76
2022/01/22 06:13:46;;;;;;;27.80;11.45;;;;;;;6.42;100.00;102869.41;5069156;28;20055;-75
2022/01/22 06:16:15;;;;;;;27.52;10.13;;;;;;;6.41;100.00;102872.47;5070427;28;20041;-75
2022/01/22 06:18:43;;;;;;;31.13;10.68;;;;;;;6.43;100.00;102871.03;5069820;28;20075;-76
2022/01/22 06:21:10;;;;;;;27.70;11.45;;;;;;;6.43;100.00;102875.69;5068542;28;20052;-75
2022/01/22 06:23:38;;;;;;;28.58;10.15;;;;;;;6.41;100.00;102876.03;5070589;28;20129;-74
2022/01/22 06:26:06;;;;;;;36.72;12.98;;;;;;;6.41;100.00;102873.25;5069420;28;20560;-76
2022/01/22 06:28:34;;;;;;;27.45;10.50;;;;;;;6.42;100.00;102874.91;5069018;28;20216;-75
2022/01/22 06:31:02;;;;;;;26.02;9.90;;;;;;;6.39;100.00;102872.78;5065643;28;20131;-75
2022/01/22 06:33:28;;;;;;;18.15;8.13;;;;;;;6.35;100.00;102881.97;5069716;28;20048;-75
2022/01/22 06:35:55;;;;;;;27.98;11.45;;;;;;;6.40;100.00;102885.41;5081100;28;20060;-75
2022/01/22 06:38:21;;;;;;;28.55;10.43;;;;;;;6.40;100.00;102879.09;5068022;28;20059;-77
2022/01/22 06:43:33;;;;;;;26.42;10.65;;;;;;;6.42;100.00;102893.34;5069452;28;20140;-78
2022/01/22 06:46:00;;;;;;;29.88;10.98;;;;;;;6.44;100.00;102897.38;5068305;28;20123;-74
2022/01/22 06:48:26;;;;;;;36.05;11.07;;;;;;;6.40;100.00;102890.09;5069442;28;20469;-75
2022/01/22 06:50:53;;;;;;;20.15;8.80;;;;;;;6.45;100.00;102898.22;5067571;28;20049;-76
2022/01/22 06:53:20;;;;;;;25.92;9.35;;;;;;;6.45;100.00;102896.25;5069077;28;20801;-75
2022/01/22 06:55:58;;;;;;;24.05;9.77;;;;;;;6.43;100.00;102890.28;5062730;28;20397;-76
2022/01/22 06:58:25;;;;;;;30.27;9.60;;;;;;;6.46;100.00;102894.31;5066298;28;20056;-74
2022/01/22 07:00:52;;;;;;;23.45;8.40;;;;;;;6.45;100.00;102898.22;5069570;28;20643;-74
2022/01/22 07:03:19;;;;;;;23.58;9.27;;;;;;;6.42;100.00;102901.59;5064964;28;20040;-74
2022/01/22 07:05:45;;;;;;;25.50;9.27;;;;;;;6.46;100.00;102899.81;5068394;28;20052;-74
2022/01/22 07:08:12;;;;;;;27.38;8.77;;;;;;;6.46;100.00;102902.56;5067512;28;20139;-77
2022/01/22 07:10:39;;;;;;;21.30;8.18;;;;;;;6.44;100.00;102913.06;5063013;28;20044;-76
2022/01/22 07:13:05;;;;;;;25.23;8.15;;;;;;;6.47;100.00;102918.75;5084108;28;20143;-76
2022/01/22 07:15:32;;;;;;;26.90;8.68;;;;;;;6.44;100.00;102915.81;5066688;28;20523;-76
2022/01/22 07:18:00;;;;;;;11.75;4.65;;;;;;;6.43;100.00;102919.69;5066260;28;20059;-76
2022/01/22 07:20:29;;;;;;;21.88;7.97;;;;;;;6.49;100.00;102918.44;5074288;28;20059;-75
2022/01/22 07:23:12;;;;;;;28.80;7.60;;;;;;;6.49;100.00;102924.78;5067993;28;20044;-76
2022/01/22 07:25:39;;;;;;;27.75;8.88;;;;;;;6.48;100.00;102925.88;5067843;28;20118;-75
2022/01/22 07:28:06;;;;;;;23.45;8.85;;;;;;;6.48;100.00;102938.84;5063386;28;20143;-75
2022/01/22 07:30:33;;;;;;;28.63;9.38;;;;;;;6.51;100.00;102932.69;5067339;28;20055;-75
2022/01/22 07:32:59;;;;;;;25.98;9.52;;;;;;;6.51;100.00;102943.69;5066588;28;20050;-75
2022/01/22 07:35:26;;;;;;;24.20;8.18;;;;;;;6.48;100.00;102936.09;5073397;28;20072;-75
2022/01/22 07:37:53;;;;;;;10.75;3.15;;;;;;;6.48;100.00;102938.84;5063390;28;20069;-74
2022/01/22 07:40:20;;;;;;;22.77;7.55;;;;;;;6.52;100.00;102937.06;5068798;28;20413;-76
2022/01/22 07:42:46;;;;;;;22.98;8.65;;;;;;;6.53;100.00;102936.75;5062994;28;20052;-74
2022/01/22 07:45:13;;;;;;;22.85;8.10;;;;;;;6.52;100.00;102948.06;5071597;28;20118;-75
2022/01/22 07:47:39;;;;;;;23.48;8.27;;;;;;;6.54;100.00;102934.78;5066439;28;20417;-76
2022/01/22 07:50:07;;;;;;;20.10;7.43;;;;;;;6.55;100.00;102939.19;5063902;28;20825;-74
2022/01/22 07:52:33;;;;;;;23.42;8.27;;;;;;;6.56;100.00;102932.56;5067204;28;20051;-74
2022/01/22 07:55:01;;;;;;;25.77;9.13;;;;;;;6.60;100.00;102941.78;5063019;28;20052;-77
2022/01/22 07:57:27;;;;;;;23.92;7.25;;;;;;;6.57;100.00;102934.16;5068182;28;20452;-76
2022/01/22 07:59:54;;;;;;;22.90;7.75;;;;;;;6.63;100.00;102949.41;5069050;28;20511;-76
2022/01/22 08:02:20;;;;;;;22.98;8.10;;;;;;;6.61;100.00;102943.44;5068325;28;20139;-78
2022/01/22 08:04:47;;;;;;;25.23;8.55;;;;;;;6.63;100.00;102949.41;5077886;28;20049;-79
2022/01/22 08:07:13;;;;;;;22.25;7.50;;;;;;;6.65;100.00;102952.66;5066516;28;20097;-77
2022/01/22 08:09:45;;;;;;;25.27;8.35;;;;;;;6.66;100.00;102949.59;5069444;28;20155;-79
2022/01/22 08:12:11;;;;;;;26.40;8.15;;;;;;;6.70;100.00;102944.25;5064080;28;20101;-77
2022/01/22 08:14:38;;;;;;;51.05;15.95;;;;;;;6.76;100.00;102951.25;5067138;28;20127;-77
2022/01/22 08:17:08;;;;;;;19.88;7.03;;;;;;;6.71;100.00;102954.13;5068430;28;20168;-78
2022/01/22 08:19:35;;;;;;;2.20;1.23;;;;;;;6.70;100.00;102953.34;5067462;28;20140;-78
2022/01/22 08:22:02;;;;;;;8.00;3.50;;;;;;;6.67;100.00;102953.97;5067516;28;20726;-78
2022/01/22 08:24:29;;;;;;;35.30;12.05;;;;;;;6.80;100.00;102953.06;5068342;28;20559;-77
2022/01/22 08:29:31;;;;;;;28.17;11.23;;;;;;;6.77;100.00;102945.44;5068378;28;20060;-78
2022/01/22 08:32:57;;;;;;;34.30;11.68;;;;;;;6.77;100.00;102942.69;5063918;28;20154;-78
2022/01/22 08:37:30;;;;;;;25.88;10.85;;;;;;;6.77;100.00;102937.16;5069327;28;20048;-78
2022/01/22 08:39:56;;;;;;;37.03;12.38;;;;;;;6.75;100.00;102942.16;5067558;28;20044;-77
2022/01/22 08:42:24;;;;;;;33.42;12.77;;;;;;;6.77;100.00;102939.94;5069261;28;20037;-77
2022/01/22 08:44:50;;;;;;;27.83;11.07;;;;;;;6.77;100.00;102948.19;5068608;28;20079;-77
2022/01/22 08:47:17;;;;;;;26.17;10.98;;;;;;;6.76;100.00;102949.31;5068634;28;20052;-78
2022/01/22 08:49:44;;;;;;;21.33;8.23;;;;;;;6.77;100.00;102953.69;5067721;28;20044;-79
2022/01/22 08:52:13;;;;;;;32.08;12.25;;;;;;;6.78;100.00;102955.28;5067739;28;20058;-77
2022/01/22 08:54:42;;;;;;;29.08;11.30;;;;;;;6.74;100.00;102948.00;5067230;28;20147;-78
2022/01/22 08:57:09;;;;;;;32.75;13.73;;;;;;;6.77;100.00;102955.63;5065205;28;20115;-78
2022/01/22 08:59:36;;;;;;;28.17;11.73;;;;;;;6.76;100.00;102959.50;5061183;28;20582;-79
2022/01/22 09:02:05;;;;;;;32.30;12.77;;;;;;;6.74;100.00;102964.50;5066859;28;20044;-78
2022/01/22 09:04:33;;;;;;;18.35;7.68;;;;;;;6.69;100.00;102959.16;5064786;28;20056;-79
2022/01/22 09:07:00;;;;;;;31.83;14.10;;;;;;;6.75;100.00;102964.19;5055880;28;20432;-78
2022/01/22 09:09:26;;;;;;;33.25;13.50;;;;;;;6.74;100.00;102967.25;5065101;28;20135;-77
2022/01/22 09:11:54;;;;;;;32.13;12.43;;;;;;;6.69;100.00;102957.22;5067522;28;20052;-77
2022/01/22 09:14:21;;;;;;;35.17;13.98;;;;;;;6.72;100.00;102964.81;5068473;28;20577;-75
2022/01/22 09:16:48;;;;;;;35.63;14.48;;;;;;;6.70;100.00;102961.59;5067205;28;20571;-74
2022/01/22 09:19:15;;;;;;;33.72;14.32;;;;;;;6.73;100.00;102966.47;5063081;28;20082;-75
2022/01/22 09:21:45;;;;;;;39.45;15.35;;;;;;;6.71;100.00;102967.88;5066817;28;20091;-75
2022/01/22 09:24:17;;;;;;;22.55;8.43;;;;;;;6.69;100.00;102978.41;5066410;28;20553;-75
2022/01/22 09:26:44;;;;;;;25.75;9.93;;;;;;;6.69;100.00;102978.41;5067827;28;20113;-75
2022/01/22 09:29:12;;;;;;;31.67;13.27;;;;;;;6.70;100.00;102975.34;5067060;28;20595;-75
2022/01/22 09:31:38;;;;;;;28.75;11.48;;;;;;;6.71;100.00;102981.63;5067163;28;20504;-75
2022/01/22 09:34:05;;;;;;;13.40;6.07;;;;;;;6.64;100.00;102978.53;5057802;28;20052;-75
2022/01/22 09:36:32;;;;;;;33.72;13.85;;;;;;;6.68;100.00;102974.03;5065350;28;20052;-75
2022/01/22 09:38:59;;;;;;;7.97;2.80;;;;;;;6.65;100.00;102986.47;5071976;28;20057;-75
2022/01/22 09:41:27;;;;;;;34.30;13.27;;;;;;;6.71;100.00;102993.47;5069757;28;20132;-76
2022/01/22 09:43:54;;;;;;;12.65;5.82;;;;;;;6.70;100.00;102986.34;5068651;28;20061;-76
2022/01/22 09:46:22;;;;;;;29.67;11.60;;;;;;;6.69;100.00;102987.50;5067861;28;20051;-77
2022/01/22 09:48:50;;;;;;;33.25;13.75;;;;;;;6.77;100.00;102988.63;5070011;28;20432;-77
2022/01/22 09:51:20;;;;;;;37.47;13.68;;;;;;;6.77;100.00;103000.47;5065233;28;20426;-78
2022/01/22 09:53:47;;;;;;;30.65;13.55;;;;;;;6.80;100.00;103004.50;5064908;28;20053;-78
2022/01/22 09:56:19;;;;;;;42.20;16.58;;;;;;;6.83;100.00;102998.38;5065926;28;20060;-77
2022/01/22 09:58:46;;;;;;;33.08;14.40;;;;;;;6.85;100.00;102993.38;5065850;28;20434;-78
2022/01/22 10:01:17;;;;;;;33.33;13.65;;;;;;;6.87;100.00;102991.09;5066808;28;20064;-77
2022/01/22 10:03:44;;;;;;;29.98;12.00;;;;;;;6.91;100.00;103009.44;5069231;28;20056;-77
2022/01/22 10:06:22;;;;;;;18.95;7.47;;;;;;;6.87;100.00;103002.13;5076431;28;20139;-76
2022/01/22 10:08:54;;;;;;;13.02;5.50;;;;;;;6.91;100.00;103005.84;5066763;28;20052;-76
2022/01/22 10:11:26;;;;;;;31.65;12.75;;;;;;;6.99;100.00;103005.88;5068337;28;20595;-79
2022/01/22 10:13:59;;;;;;;32.05;12.50;;;;;;;7.05;100.00;103012.06;5060469;28;20049;-77
2022/01/22 10:16:35;;;;;;;29.88;13.90;;;;;;;7.08;100.00;103014.19;5071236;28;20053;-79
2022/01/22 10:19:18;;;;;;;30.42;13.10;;;;;;;7.12;100.00;103013.22;5063907;28;20586;-78
2022/01/22 10:21:57;;;;;;;25.85;10.88;;;;;;;7.12;100.00;103012.44;5056567;28;20483;-78
2022/01/22 10:24:35;;;;;;;39.10;14.60;;;;;;;7.14;100.00;103015.66;5061849;28;20040;-77
2022/01/22 10:27:37;;;;;;;13.73;5.97;;;;;;;7.06;100.00;103014.50;5066375;28;20060;-77
2022/01/22 10:30:14;;;;;;;36.83;14.48;;;;;;;7.22;100.00;103023.94;5062505;28;20550;-75
2022/01/22 10:33:05;;;;;;;20.35;6.32;;;;;;;7.21;100.00;103011.31;5065320;28;20093;-78
2022/01/22 10:35:33;;;;;;;28.52;11.15;;;;;;;7.26;100.00;103019.41;5077217;28;20889;-76
2022/01/22 10:38:18;;;;;;;26.00;10.23;;;;;;;7.37;100.00;103015.25;5069910;28;20063;-79
2022/01/22 10:40:46;;;;;;;25.20;10.55;;;;;;;7.40;100.00;103013.81;5063836;28;20452;-78
2022/01/22 10:43:22;;;;;;;27.63;10.30;;;;;;;7.43;100.00;103019.47;5068446;28;20045;-77
2022/01/22 10:46:14;;;;;;;26.38;10.15;;;;;;;7.45;100.00;103016.41;5067367;28;20569;-76
2022/01/22 10:48:44;;;;;;;30.45;11.43;;;;;;;7.45;100.00;103016.41;5066296;28;20098;-78
2022/01/22 10:51:15;;;;;;;29.88;10.90;;;;;;;7.44;100.00;103012.84;5065693;28;20485;-78
2022/01/22 10:53:49;;;;;;;28.20;11.18;;;;;;;7.45;100.00;103013.63;5066933;28;20228;-77
2022/01/22 10:56:20;;;;;;;27.10;11.07;;;;;;;7.44;100.00;103012.03;5068124;28;20048;-78
2022/01/22 10:59:06;;;;;;;25.20;9.90;;;;;;;7.54;100.00;103012.53;5063796;28;20091;-78
2022/01/22 11:01:55;;;;;;;27.52;10.23;;;;;;;7.58;100.00;102999.75;5067644;28;20634;-78
2022/01/22 11:04:23;;;;;;;19.30;8.07;;;;;;;7.62;100.00;103005.41;5073501;28;20051;-77
2022/01/22 11:07:00;;;;;;;21.88;7.82;;;;;;;7.79;100.00;102999.91;5070768;28;20163;-75
2022/01/22 11:09:46;;;;;;;15.38;5.60;;;;;;;8.36;100.00;103006.88;5065586;28;20056;-80
2022/01/22 11:12:14;;;;;;;18.35;6.47;;;;;;;8.61;100.00;103000.47;5060936;28;20153;-78
2022/01/22 11:14:42;;;;;;;6.53;2.75;;;;;;;8.52;100.00;102996.94;5064040;28;20052;-79
2022/01/22 11:17:09;;;;;;;17.02;6.15;;;;;;;8.86;100.00;103001.53;5063073;28;20135;-80
2022/01/22 11:19:38;;;;;;;17.13;6.15;;;;;;;8.86;100.00;102996.03;5062710;28;20406;-80
2022/01/22 11:22:09;;;;;;;19.35;6.82;;;;;;;8.83;100.00;102985.63;5059902;28;20047;-79
2022/01/22 11:24:38;;;;;;;17.60;6.50;;;;;;;8.79;100.00;102995.72;5063057;28;20049;-79
2022/01/22 11:27:07;;;;;;;18.23;6.10;;;;;;;8.57;100.00;102985.72;5067173;28;20056;-77
2022/01/22 11:29:41;;;;;;;13.73;5.15;;;;;;;8.53;100.00;102986.72;5073934;28;20510;-77
2022/01/22 11:32:12;;;;;;;16.13;5.30;;;;;;;8.43;100.00;102998.91;5067538;28;20087;-79
2022/01/22 11:34:42;;;;;;;15.68;5.20;;;;;;;8.37;100.00;103002.97;5074110;28;20568;-78
2022/01/22 11:37:19;;;;;;;17.92;5.88;;;;;;;8.30;100.00;103016.47;5073760;28;20138;-79
2022/01/22 11:39:46;;;;;;;16.90;6.00;;;;;;;8.21;100.00;103003.78;5064504;28;20152;-79
2022/01/22 11:42:14;;;;;;;13.90;5.18;;;;;;;8.18;100.00;103010.78;5068639;28;20053;-78
2022/01/22 11:45:03;;;;;;;11.25;4.28;;;;;;;8.10;100.00;103002.50;5065706;28;20151;-79
2022/01/22 11:47:29;;;;;;;11.20;3.38;;;;;;;7.95;100.00;103003.81;5045589;28;20154;-78
2022/01/22 11:50:06;;;;;;;13.75;4.50;;;;;;;7.93;100.00;103014.34;5052902;28;20052;-79
2022/01/22 11:52:37;;;;;;;10.95;3.60;;;;;;;7.89;100.00;103005.91;5066517;28;20060;-78
2022/01/22 11:55:11;;;;;;;12.27;4.38;;;;;;;7.87;100.00;103004.63;5067169;28;21044;-77
2022/01/22 11:57:39;;;;;;;18.40;5.18;;;;;;;7.85;100.00;103004.13;5052511;28;20135;-77
2022/01/22 12:00:17;;;;;;;12.43;4.63;;;;;;;7.88;100.00;103000.72;5054066;28;20048;-79
2022/01/22 12:02:44;;;;;;;17.25;4.97;;;;;;;7.83;100.00;103003.63;5051924;28;20048;-77
2022/01/22 12:05:10;;;;;;;10.07;3.67;;;;;;;7.84;100.00;103002.50;5049548;28;20507;-77
2022/01/22 12:07:37;;;;;;;14.48;4.82;;;;;;;7.90;100.00;103002.00;5048441;28;20048;-79
2022/01/22 12:10:19;;;;;;;10.63;3.78;;;;;;;7.94;100.00;102993.94;5049391;28;20385;-78
2022/01/22 12:15:49;;;;;;;11.85;4.20;;;;;;;7.96;100.00;102994.38;5050887;28;20072;-79
2022/01/22 12:18:18;;;;;;;13.93;4.43;;;;;;;7.95;100.00;102992.78;5052751;28;20076;-79
2022/01/22 12:23:36;;;;;;;11.93;4.72;;;;;;;7.85;100.00;102977.38;5048729;28;20070;-79
2022/01/22 12:26:03;;;;;;;13.43;4.65;;;;;;;7.85;100.00;102991.16;5049760;28;21717;-78
2022/01/22 12:28:36;;;;;;;14.68;5.00;;;;;;;7.80;100.00;102993.28;5052194;28;20127;-79
2022/01/22 12:31:06;;;;;;;14.25;5.05;;;;;;;7.79;100.00;102991.63;5052451;28;20062;-80
2022/01/22 12:33:33;;;;;;;13.00;4.45;;;;;;;7.75;100.00;102991.50;5051643;28;20058;-78
2022/01/22 12:36:25;;;;;;;14.80;4.60;;;;;;;7.75;100.00;102996.19;5049742;28;20048;-78
2022/01/22 12:39:07;;;;;;;12.95;4.13;;;;;;;7.70;100.00;103002.66;5049198;28;20053;-78
2022/01/22 12:44:39;;;;;;;;;;;;;;;;;;;;;
2022/01/22 12:47:01;;;;;;;13.98;5.15;;;;;;;7.70;100.00;102999.91;5051661;28;20139;-78
2022/01/22 12:49:29;;;;;;;17.83;5.78;;;;;;;7.68;100.00;102995.84;5049856;28;20135;-79
2022/01/22 12:52:03;;;;;;;14.80;5.90;;;;;;;7.72;100.00;102999.56;5048104;28;20056;-78
2022/01/22 12:54:42;;;;;;;18.75;5.75;;;;;;;7.69;100.00;102992.78;5050679;28;20063;-77
2022/01/22 12:57:19;;;;;;;15.05;4.88;;;;;;;7.74;100.00;102997.31;5051687;28;20052;-77
2022/01/22 12:59:52;;;;;;;11.32;3.78;;;;;;;7.71;100.00;103012.56;5064209;28;20048;-76
2022/01/22 13:02:37;;;;;;;17.67;4.75;;;;;;;7.72;100.00;102999.56;5065986;28;20564;-79
2022/01/22 13:05:05;;;;;;;17.75;5.57;;;;;;;7.75;100.00;102994.25;5061803;28;20105;-77
2022/01/22 13:07:43;;;;;;;17.63;5.38;;;;;;;7.84;100.00;103008.81;5066414;28;20551;-78
2022/01/22 13:10:10;;;;;;;16.25;5.32;;;;;;;7.90;100.00;103003.97;5060337;28;20067;-78
2022/01/22 13:12:42;;;;;;;14.90;4.38;;;;;;;7.87;100.00;103004.63;5064256;28;20044;-77
2022/01/22 13:15:10;;;;;;;19.98;4.93;;;;;;;7.84;100.00;103011.56;5068077;28;20132;-78
2022/01/22 13:17:38;;;;;;;11.55;3.60;;;;;;;7.83;100.00;103006.38;5064951;28;20067;-77
2022/01/22 13:20:06;;;;;;;13.23;4.45;;;;;;;7.77;100.00;103014.00;5065321;28;20072;-78
2022/01/22 13:22:38;;;;;;;16.50;5.72;;;;;;;7.83;100.00;103009.13;5070995;28;20109;-78
2022/01/22 13:25:15;;;;;;;20.33;5.95;;;;;;;7.79;100.00;103005.41;5067462;28;20175;-78